createdAt,value
2017-10-21T00:00:38.349Z,71.5
2017-10-21T00:01:40.784Z,71.7
2017-10-21T00:02:43.212Z,71.7
2017-10-21T00:03:45.996Z,71.7
2017-10-21T00:04:48.419Z,71.7
2017-10-21T00:05:50.851Z,71.7
2017-10-21T00:06:53.306Z,71.7
2017-10-21T00:07:55.832Z,71.6
2017-10-21T00:08:58.254Z,71.6
2017-10-21T00:10:00.685Z,71.6
2017-10-21T00:11:03.113Z,71.6
2017-10-21T00:12:05.548Z,71.7
2017-10-21T00:13:07.980Z,71.6
2017-10-21T00:14:10.404Z,71.6
2017-10-21T00:15:13.177Z,71.6
2017-10-21T00:16:15.623Z,71.5
2017-10-21T00:17:18.051Z,71.6
2017-10-21T00:18:20.487Z,71.6
2017-10-21T00:19:22.915Z,71.7
2017-10-21T00:20:25.352Z,71.5
2017-10-21T00:21:27.790Z,71.6
2017-10-21T00:22:30.220Z,71.6
2017-10-21T00:23:32.649Z,71.7
2017-10-21T00:24:35.071Z,71.6
2017-10-21T00:25:37.500Z,71.7
2017-10-21T00:26:39.927Z,71.6
2017-10-21T00:27:42.356Z,71.6
2017-10-21T00:28:45.167Z,71.6
2017-10-21T00:29:47.592Z,71.7
2017-10-21T00:30:50.413Z,71.7
2017-10-21T00:31:52.845Z,71.7
2017-10-21T00:32:55.611Z,71.8
2017-10-21T00:33:58.041Z,71.8
2017-10-21T00:35:00.463Z,71.8
2017-10-21T00:36:02.891Z,71.9
2017-10-21T00:37:05.674Z,72
2017-10-21T00:38:08.103Z,71.9
2017-10-21T00:39:10.533Z,71.8
2017-10-21T00:40:12.971Z,71.8
2017-10-21T00:41:15.398Z,71.8
2017-10-21T00:42:17.824Z,71.7
2017-10-21T00:43:20.258Z,71.7
2017-10-21T00:44:22.681Z,71.7
2017-10-21T00:45:25.109Z,71.9
2017-10-21T00:46:27.540Z,71.8
2017-10-21T00:47:29.959Z,71.8
2017-10-21T00:48:32.390Z,71.8
2017-10-21T00:49:34.825Z,71.7
2017-10-21T00:50:37.296Z,71.7
2017-10-21T00:51:39.726Z,71.8
2017-10-21T00:52:42.162Z,72
2017-10-21T00:53:44.573Z,72
2017-10-21T00:54:47.020Z,71.9
2017-10-21T00:55:49.461Z,72
2017-10-21T00:56:51.870Z,71.9
2017-10-21T00:57:54.304Z,71.7
2017-10-21T00:58:57.084Z,71.7
2017-10-21T00:59:59.509Z,71.8
2017-10-21T01:01:01.949Z,71.7
2017-10-21T01:02:04.371Z,71.8
2017-10-21T01:03:06.800Z,71.7
2017-10-21T01:04:09.215Z,71.7
2017-10-21T01:05:11.650Z,71.7
2017-10-21T01:06:14.427Z,71.7
2017-10-21T01:07:16.861Z,71.8
2017-10-21T01:08:19.298Z,71.7
2017-10-21T01:09:21.724Z,71.7
2017-10-21T01:10:24.149Z,71.7
2017-10-21T01:11:26.590Z,71.6
2017-10-21T01:12:29.012Z,71.6
2017-10-21T01:13:31.445Z,71.6
2017-10-21T01:14:33.876Z,71.7
2017-10-21T01:15:36.309Z,71.7
2017-10-21T01:16:38.737Z,71.9
2017-10-21T01:17:41.168Z,71.8
2017-10-21T01:18:43.592Z,71.8
2017-10-21T01:19:46.022Z,71.9
2017-10-21T01:20:48.446Z,71.9
2017-10-21T01:21:50.905Z,71.9
2017-10-21T01:22:53.333Z,72
2017-10-21T01:23:55.753Z,71.9
2017-10-21T01:24:58.186Z,72
2017-10-21T01:26:00.627Z,72
2017-10-21T01:27:03.058Z,72
2017-10-21T01:28:05.487Z,71.9
2017-10-21T01:29:07.903Z,71.9
2017-10-21T01:30:10.688Z,71.9
2017-10-21T01:31:13.485Z,71.9
2017-10-21T01:32:15.916Z,71.9
2017-10-21T01:33:18.351Z,71.9
2017-10-21T01:34:21.136Z,72
2017-10-21T01:35:23.563Z,71.9
2017-10-21T01:36:26.002Z,71.7
2017-10-21T01:37:28.784Z,71.9
2017-10-21T01:38:31.210Z,71.9
2017-10-21T01:39:33.643Z,72
2017-10-21T01:40:36.068Z,72
2017-10-21T01:41:38.497Z,72.1
2017-10-21T01:42:40.925Z,72.1
2017-10-21T01:43:43.340Z,72.1
2017-10-21T01:44:45.769Z,72
2017-10-21T01:45:48.207Z,71.8
2017-10-21T01:46:50.974Z,71.9
2017-10-21T01:47:53.404Z,71.9
2017-10-21T01:48:55.831Z,71.9
2017-10-21T01:49:58.263Z,71.8
2017-10-21T01:51:00.696Z,71.8
2017-10-21T01:52:03.126Z,71.7
2017-10-21T01:53:05.555Z,71.8
2017-10-21T01:54:08.003Z,71.7
2017-10-21T01:55:10.435Z,71.8
2017-10-21T01:56:12.853Z,71.7
2017-10-21T01:57:15.282Z,71.8
2017-10-21T01:58:17.707Z,71.8
2017-10-21T01:59:20.505Z,71.8
2017-10-21T02:00:22.926Z,71.8
2017-10-21T02:01:25.374Z,71.8
2017-10-21T02:02:27.800Z,71.7
2017-10-21T02:03:30.225Z,71.8
2017-10-21T02:04:32.657Z,71.8
2017-10-21T02:05:35.085Z,71.7
2017-10-21T02:06:37.510Z,71.8
2017-10-21T02:07:39.948Z,71.7
2017-10-21T02:08:42.369Z,71.7
2017-10-21T02:09:44.793Z,71.7
2017-10-21T02:10:47.232Z,71.7
2017-10-21T02:11:49.657Z,71.6
2017-10-21T02:12:52.082Z,71.7
2017-10-21T02:13:54.517Z,71.8
2017-10-21T02:14:56.942Z,71.8
2017-10-21T02:15:59.374Z,71.9
2017-10-21T02:17:01.804Z,71.8
2017-10-21T02:18:04.218Z,71.8
2017-10-21T02:19:06.657Z,71.8
2017-10-21T02:20:09.081Z,71.9
2017-10-21T02:21:11.511Z,71.9
2017-10-21T02:22:14.293Z,71.9
2017-10-21T02:23:16.720Z,71.9
2017-10-21T02:24:19.148Z,71.9
2017-10-21T02:25:21.597Z,71.8
2017-10-21T02:26:24.021Z,71.9
2017-10-21T02:27:26.442Z,72
2017-10-21T02:28:28.871Z,72
2017-10-21T02:29:31.670Z,71.8
2017-10-21T02:30:34.090Z,72.1
2017-10-21T02:31:36.536Z,72
2017-10-21T02:32:38.962Z,72
2017-10-21T02:33:41.411Z,72.1
2017-10-21T02:34:43.822Z,72.1
2017-10-21T02:35:46.250Z,71.9
2017-10-21T02:36:48.684Z,72
2017-10-21T02:37:51.106Z,72.1
2017-10-21T02:38:53.547Z,72.2
2017-10-21T02:39:55.957Z,72.2
2017-10-21T02:40:58.381Z,72.2
2017-10-21T02:42:00.821Z,72.1
2017-10-21T02:43:03.253Z,72.1
2017-10-21T02:44:05.673Z,72.1
2017-10-21T02:45:08.114Z,72.1
2017-10-21T02:46:10.898Z,72.2
2017-10-21T02:47:13.331Z,72.2
2017-10-21T02:48:15.764Z,72.1
2017-10-21T02:49:18.190Z,72.1
2017-10-21T02:50:20.620Z,72.2
2017-10-21T02:51:23.057Z,72.2
2017-10-21T02:52:25.470Z,72.2
2017-10-21T02:53:27.915Z,72.2
2017-10-21T02:54:30.334Z,72.1
2017-10-21T02:55:33.120Z,72.1
2017-10-21T02:56:35.548Z,72.1
2017-10-21T02:57:37.977Z,72.1
2017-10-21T02:58:40.401Z,72.1
2017-10-21T02:59:42.835Z,72.1
2017-10-21T03:00:45.619Z,72.1
2017-10-21T03:01:48.052Z,72.1
2017-10-21T03:02:50.483Z,72.1
2017-10-21T03:03:52.912Z,72.2
2017-10-21T03:04:55.344Z,72.2
2017-10-21T03:05:58.116Z,72.2
2017-10-21T03:07:00.541Z,72.2
2017-10-21T03:08:02.973Z,72.1
2017-10-21T03:09:05.395Z,72.1
2017-10-21T03:10:07.824Z,72.1
2017-10-21T03:11:10.260Z,72.2
2017-10-21T03:12:13.043Z,72.2
2017-10-21T03:13:15.476Z,72.2
2017-10-21T03:14:17.904Z,72.3
2017-10-21T03:15:20.335Z,72.4
2017-10-21T03:16:22.774Z,72.3
2017-10-21T03:17:25.196Z,72.3
2017-10-21T03:18:27.612Z,72.2
2017-10-21T03:19:30.409Z,72.3
2017-10-21T03:20:32.834Z,72.3
2017-10-21T03:21:35.251Z,72.3
2017-10-21T03:22:37.679Z,72.3
2017-10-21T03:23:40.101Z,72.2
2017-10-21T03:24:42.535Z,72.3
2017-10-21T03:25:44.976Z,72.2
2017-10-21T03:26:47.387Z,72.1
2017-10-21T03:27:49.822Z,72.2
2017-10-21T03:28:52.252Z,72.3
2017-10-21T03:29:54.685Z,72.3
2017-10-21T03:30:57.119Z,72.2
2017-10-21T03:31:59.538Z,72.3
2017-10-21T03:33:01.965Z,72.3
2017-10-21T03:34:04.388Z,72.3
2017-10-21T03:35:06.824Z,72.4
2017-10-21T03:36:09.234Z,72.3
2017-10-21T03:37:11.663Z,72.3
2017-10-21T03:38:14.094Z,72.3
2017-10-21T03:39:16.533Z,72.3
2017-10-21T03:40:18.963Z,72.3
2017-10-21T03:41:21.391Z,72.3
2017-10-21T03:42:23.814Z,72.2
2017-10-21T03:43:26.250Z,72.3
2017-10-21T03:44:28.672Z,72.3
2017-10-21T03:45:31.460Z,72.3
2017-10-21T03:46:33.891Z,72.3
2017-10-21T03:47:36.320Z,72.2
2017-10-21T03:48:38.744Z,72.3
2017-10-21T03:49:41.568Z,72.3
2017-10-21T03:50:43.976Z,72.3
2017-10-21T03:51:46.422Z,72.3
2017-10-21T03:52:48.840Z,72.3
2017-10-21T03:53:51.277Z,72.3
2017-10-21T03:54:53.711Z,72.3
2017-10-21T03:55:56.138Z,72.3
2017-10-21T03:56:58.566Z,72.4
2017-10-21T03:58:01.006Z,72.3
2017-10-21T03:59:03.810Z,72.4
2017-10-21T04:00:06.242Z,72.3
2017-10-21T04:01:08.664Z,72.3
2017-10-21T04:02:11.092Z,72.4
2017-10-21T04:03:13.527Z,72.3
2017-10-21T04:04:15.973Z,72.3
2017-10-21T04:05:18.756Z,72.2
2017-10-21T04:06:21.180Z,72.4
2017-10-21T04:07:23.621Z,72.4
2017-10-21T04:08:26.056Z,72.3
2017-10-21T04:09:28.492Z,72.3
2017-10-21T04:10:30.922Z,72.3
2017-10-21T04:11:33.338Z,72.4
2017-10-21T04:12:35.768Z,72.2
2017-10-21T04:13:38.196Z,72.1
2017-10-21T04:14:40.618Z,72.2
2017-10-21T04:15:43.405Z,72.3
2017-10-21T04:16:45.847Z,72.2
2017-10-21T04:17:48.283Z,72.2
2017-10-21T04:18:50.705Z,72.1
2017-10-21T04:19:53.136Z,72.2
2017-10-21T04:20:55.914Z,72.3
2017-10-21T04:21:58.355Z,72.3
2017-10-21T04:23:00.785Z,72.3
2017-10-21T04:24:03.207Z,72.3
2017-10-21T04:25:05.630Z,72.1
2017-10-21T04:26:08.066Z,72.2
2017-10-21T04:27:10.490Z,72.1
2017-10-21T04:28:12.914Z,72.1
2017-10-21T04:29:15.344Z,72.2
2017-10-21T04:30:17.768Z,72.1
2017-10-21T04:31:20.539Z,72.2
2017-10-21T04:32:22.966Z,72
2017-10-21T04:33:25.393Z,72.1
2017-10-21T04:34:27.829Z,72.3
2017-10-21T04:35:30.258Z,72.3
2017-10-21T04:36:32.686Z,72.3
2017-10-21T04:37:35.113Z,72.4
2017-10-21T04:38:37.550Z,72.4
2017-10-21T04:39:39.976Z,72.4
2017-10-21T04:40:42.394Z,72.4
2017-10-21T04:41:44.821Z,72.4
2017-10-21T04:42:47.244Z,72.4
2017-10-21T04:43:49.674Z,72.5
2017-10-21T04:44:52.098Z,72.5
2017-10-21T04:45:54.524Z,72.5
2017-10-21T04:46:56.954Z,72.5
2017-10-21T04:47:59.388Z,72.4
2017-10-21T04:49:01.821Z,72.5
2017-10-21T04:50:04.234Z,72.5
2017-10-21T04:51:06.677Z,72.6
2017-10-21T04:52:09.101Z,72.6
2017-10-21T04:53:11.531Z,72.6
2017-10-21T04:54:13.950Z,72.6
2017-10-21T04:55:16.375Z,72.5
2017-10-21T04:56:18.798Z,72.6
2017-10-21T04:57:21.234Z,72.7
2017-10-21T04:58:23.656Z,72.7
2017-10-21T04:59:26.081Z,72.6
2017-10-21T05:00:28.515Z,72.5
2017-10-21T05:01:30.949Z,72.5
2017-10-21T05:02:33.368Z,72.5
2017-10-21T05:03:35.805Z,72.5
2017-10-21T05:04:38.623Z,72.5
2017-10-21T05:05:41.040Z,72.3
2017-10-21T05:06:43.472Z,72.5
2017-10-21T05:07:45.896Z,72.4
2017-10-21T05:08:48.326Z,72.4
2017-10-21T05:09:51.112Z,72.5
2017-10-21T05:10:53.541Z,72.5
2017-10-21T05:11:55.963Z,72.6
2017-10-21T05:12:58.399Z,72.5
2017-10-21T05:14:00.824Z,72.5
2017-10-21T05:15:03.252Z,72.6
2017-10-21T05:16:05.676Z,72.6
2017-10-21T05:17:08.111Z,72.5
2017-10-21T05:18:10.547Z,72.5
2017-10-21T05:19:12.978Z,72.6
2017-10-21T05:20:15.401Z,72.5
2017-10-21T05:21:17.836Z,72.6
2017-10-21T05:22:20.255Z,72.6
2017-10-21T05:23:22.690Z,72.4
2017-10-21T05:24:25.116Z,72.5
2017-10-21T05:25:27.548Z,72.5
2017-10-21T05:26:29.970Z,72.6
2017-10-21T05:27:32.401Z,72.7
2017-10-21T05:28:34.831Z,72.6
2017-10-21T05:29:37.264Z,72.6
2017-10-21T05:30:39.698Z,72.6
2017-10-21T05:31:42.112Z,72.6
2017-10-21T05:32:44.558Z,72.5
2017-10-21T05:33:46.973Z,72.6
2017-10-21T05:34:49.395Z,72.6
2017-10-21T05:35:51.823Z,72.8
2017-10-21T05:36:54.259Z,72.8
2017-10-21T05:37:56.689Z,72.8
2017-10-21T05:38:59.128Z,72.8
2017-10-21T05:40:01.540Z,72.8
2017-10-21T05:41:03.969Z,72.7
2017-10-21T05:42:06.404Z,72.7
2017-10-21T05:43:08.838Z,72.5
2017-10-21T05:44:11.262Z,72.4
2017-10-21T05:45:13.684Z,72.4
2017-10-21T05:46:16.111Z,72.6
2017-10-21T05:47:18.568Z,72.5
2017-10-21T05:48:20.999Z,72.5
2017-10-21T05:49:23.433Z,72.5
2017-10-21T05:50:25.854Z,72.6
2017-10-21T05:51:28.284Z,72.7
2017-10-21T05:52:30.716Z,72.6
2017-10-21T05:53:33.142Z,72.6
2017-10-21T05:54:35.559Z,72.6
2017-10-21T05:55:37.990Z,72.7
2017-10-21T05:56:40.417Z,72.6
2017-10-21T05:57:42.850Z,72.5
2017-10-21T05:58:45.277Z,72.5
2017-10-21T05:59:47.704Z,72.6
2017-10-21T06:00:50.135Z,72.6
2017-10-21T06:01:52.554Z,72.5
2017-10-21T06:02:54.979Z,72.6
2017-10-21T06:03:57.414Z,72.7
2017-10-21T06:04:59.836Z,72.7
2017-10-21T06:06:02.257Z,72.8
2017-10-21T06:07:04.689Z,72.7
2017-10-21T06:08:07.121Z,72.8
2017-10-21T06:09:09.553Z,72.8
2017-10-21T06:10:11.988Z,72.8
2017-10-21T06:11:14.409Z,72.9
2017-10-21T06:12:16.852Z,72.8
2017-10-21T06:13:19.274Z,72.7
2017-10-21T06:14:21.712Z,72.8
2017-10-21T06:15:24.146Z,72.8
2017-10-21T06:16:26.569Z,72.7
2017-10-21T06:17:28.998Z,72.6
2017-10-21T06:18:31.792Z,72.7
2017-10-21T06:19:34.212Z,72.6
2017-10-21T06:20:36.633Z,72.7
2017-10-21T06:21:39.061Z,72.6
2017-10-21T06:22:41.480Z,72.5
2017-10-21T06:23:43.912Z,72.5
2017-10-21T06:24:46.723Z,72.6
2017-10-21T06:25:49.492Z,72.3
2017-10-21T06:26:51.927Z,72.4
2017-10-21T06:27:54.369Z,72.5
2017-10-21T06:28:56.797Z,72.5
2017-10-21T06:29:59.214Z,72.6
2017-10-21T06:31:01.637Z,72.5
2017-10-21T06:32:04.070Z,72.5
2017-10-21T06:33:06.500Z,72.5
2017-10-21T06:34:08.929Z,72.4
2017-10-21T06:35:11.701Z,72.4
2017-10-21T06:36:14.484Z,72.6
2017-10-21T06:37:16.923Z,72.6
2017-10-21T06:38:19.350Z,72.5
2017-10-21T06:39:22.132Z,72.6
2017-10-21T06:40:24.560Z,72.6
2017-10-21T06:41:26.984Z,72.5
2017-10-21T06:42:29.494Z,72.5
2017-10-21T06:43:32.311Z,72.6
2017-10-21T06:44:35.091Z,72.9
2017-10-21T06:45:37.517Z,72.9
2017-10-21T06:46:39.952Z,72.8
2017-10-21T06:47:42.732Z,72.9
2017-10-21T06:48:45.164Z,72.9
2017-10-21T06:49:47.591Z,72.9
2017-10-21T06:50:50.017Z,72.8
2017-10-21T06:51:52.457Z,72.8
2017-10-21T06:52:54.898Z,72.8
2017-10-21T06:53:57.366Z,72.7
2017-10-21T06:54:59.802Z,72.8
2017-10-21T06:56:02.243Z,72.7
2017-10-21T06:57:04.671Z,72.5
2017-10-21T06:58:07.128Z,72.5
2017-10-21T06:59:09.570Z,72.6
2017-10-21T07:00:12.012Z,72.4
2017-10-21T07:01:14.434Z,72.4
2017-10-21T07:02:16.870Z,72.5
2017-10-21T07:03:19.315Z,72.4
2017-10-21T07:04:21.745Z,72.5
2017-10-21T07:05:24.180Z,72.4
2017-10-21T07:06:26.605Z,72.6
2017-10-21T07:07:29.044Z,72.6
2017-10-21T07:08:31.486Z,72.3
2017-10-21T07:09:33.926Z,72.3
2017-10-21T07:10:36.359Z,72.2
2017-10-21T07:11:39.178Z,72.3
2017-10-21T07:12:41.620Z,72.4
2017-10-21T07:13:44.047Z,72
2017-10-21T07:14:46.482Z,72.1
2017-10-21T07:15:48.918Z,72.2
2017-10-21T07:16:51.358Z,72.3
2017-10-21T07:17:53.790Z,72.1
2017-10-21T07:18:56.245Z,72.1
2017-10-21T07:19:58.673Z,72.1
2017-10-21T07:21:01.108Z,71.8
2017-10-21T07:22:03.560Z,71.8
2017-10-21T07:23:06.006Z,72
2017-10-21T07:24:08.451Z,72
2017-10-21T07:25:10.879Z,72
2017-10-21T07:26:13.340Z,72
2017-10-21T07:27:15.775Z,71.9
2017-10-21T07:28:18.221Z,72.2
2017-10-21T07:29:20.655Z,72.2
2017-10-21T07:30:23.098Z,72.1
2017-10-21T07:31:25.538Z,72.2
2017-10-21T07:32:27.982Z,72.2
2017-10-21T07:33:30.413Z,72.3
2017-10-21T07:34:32.882Z,72.3
2017-10-21T07:35:35.303Z,72
2017-10-21T07:36:37.750Z,72.1
2017-10-21T07:37:40.182Z,71.7
2017-10-21T07:38:42.618Z,72
2017-10-21T07:39:45.062Z,71.9
2017-10-21T07:40:47.494Z,71.6
2017-10-21T07:41:49.919Z,71.6
2017-10-21T07:42:52.368Z,71.8
2017-10-21T07:43:54.794Z,71.4
2017-10-21T07:44:57.225Z,71.3
2017-10-21T07:46:00.179Z,71.7
2017-10-21T07:47:02.623Z,71.8
2017-10-21T07:48:05.068Z,71.5
2017-10-21T07:49:07.494Z,71.7
2017-10-21T07:50:09.935Z,72.1
2017-10-21T07:51:12.372Z,72.1
2017-10-21T07:52:15.175Z,72.1
2017-10-21T07:53:17.628Z,71.7
2017-10-21T07:54:20.074Z,72.1
2017-10-21T07:55:22.510Z,72
2017-10-21T07:56:24.956Z,71.7
2017-10-21T07:57:27.397Z,72
2017-10-21T07:58:29.818Z,72
2017-10-21T07:59:32.263Z,71.6
2017-10-21T08:00:34.729Z,71.6
2017-10-21T08:01:37.168Z,71.7
2017-10-21T08:02:39.606Z,71.7
2017-10-21T08:03:42.028Z,71.7
2017-10-21T08:04:44.816Z,71.7
2017-10-21T08:05:47.259Z,71.7
2017-10-21T08:06:49.689Z,71.7
2017-10-21T08:07:52.115Z,71.6
2017-10-21T08:08:54.559Z,71.5
2017-10-21T08:09:56.996Z,71.4
2017-10-21T08:10:59.426Z,71.4
2017-10-21T08:12:01.868Z,71.4
2017-10-21T08:13:04.302Z,71.4
2017-10-21T08:14:06.744Z,71.3
2017-10-21T08:15:09.182Z,71.1
2017-10-21T08:16:11.613Z,71
2017-10-21T08:17:14.054Z,70.9
2017-10-21T08:18:16.491Z,71.1
2017-10-21T08:19:18.915Z,71.1
2017-10-21T08:21:06.180Z,71.1
2017-10-21T08:22:08.560Z,71.1
2017-10-21T08:23:10.933Z,71.4
2017-10-21T08:24:13.318Z,71.5
2017-10-21T08:25:15.714Z,71.4
2017-10-21T08:26:18.082Z,71.4
2017-10-21T08:27:20.448Z,71.3
2017-10-21T08:28:22.830Z,71.2
2017-10-21T08:29:25.206Z,71.1
2017-10-21T08:30:27.582Z,71.1
2017-10-21T08:31:29.962Z,70.9
2017-10-21T08:32:32.341Z,71
2017-10-21T08:33:34.720Z,71
2017-10-21T08:34:37.116Z,70.9
2017-10-21T08:35:39.841Z,70.9
2017-10-21T08:36:42.219Z,71
2017-10-21T08:37:44.601Z,71
2017-10-21T08:38:46.975Z,70.9
2017-10-21T08:39:49.349Z,71
2017-10-21T08:40:51.742Z,70.8
2017-10-21T08:41:54.108Z,70.9
2017-10-21T08:42:56.485Z,70.9
2017-10-21T08:43:58.868Z,70.9
2017-10-21T08:45:01.589Z,70.7
2017-10-21T08:46:03.969Z,70.9
2017-10-21T08:47:06.355Z,70.9
2017-10-21T08:48:08.721Z,70.8
2017-10-21T08:49:11.109Z,71.1
2017-10-21T08:50:13.487Z,70.9
2017-10-21T08:51:15.855Z,70.8
2017-10-21T08:52:18.237Z,70.8
2017-10-21T08:53:20.621Z,71
2017-10-21T08:54:22.991Z,70.8
2017-10-21T08:55:25.369Z,71
2017-10-21T08:56:27.750Z,70.9
2017-10-21T08:57:30.130Z,70.9
2017-10-21T08:58:32.527Z,70.9
2017-10-21T08:59:34.962Z,70.9
2017-10-21T09:00:37.741Z,70.8
2017-10-21T09:01:40.532Z,70.9
2017-10-21T09:02:42.977Z,70.9
2017-10-21T09:03:45.409Z,70.8
2017-10-21T09:04:47.845Z,70.8
2017-10-21T09:05:50.274Z,70.9
2017-10-21T09:06:52.703Z,70.8
2017-10-21T09:07:55.500Z,70.8
2017-10-21T09:08:57.950Z,70.8
2017-10-21T09:10:00.371Z,70.8
2017-10-21T09:11:02.827Z,70.9
2017-10-21T09:12:05.713Z,70.8
2017-10-21T09:13:08.157Z,71.1
2017-10-21T09:14:10.580Z,70.9
2017-10-21T09:15:13.256Z,71.1
2017-10-21T09:16:15.701Z,71
2017-10-21T09:17:18.142Z,71
2017-10-21T09:18:21.515Z,70.9
2017-10-21T09:19:23.943Z,70.7
2017-10-21T09:20:26.519Z,70.7
2017-10-21T09:21:29.059Z,70.6
2017-10-21T09:22:31.494Z,70.7
2017-10-21T09:23:33.925Z,70.8
2017-10-21T09:24:36.375Z,70.8
2017-10-21T09:25:38.784Z,70.8
2017-10-21T09:26:41.229Z,70.6
2017-10-21T09:27:43.756Z,70.6
2017-10-21T09:28:46.197Z,70.6
2017-10-21T09:29:48.639Z,70.7
2017-10-21T09:30:51.080Z,70.5
2017-10-21T09:31:53.512Z,70.5
2017-10-21T09:32:55.951Z,70.6
2017-10-21T09:33:58.393Z,70.6
2017-10-21T09:35:00.823Z,70.8
2017-10-21T09:36:03.405Z,70.6
2017-10-21T09:37:05.838Z,70.5
2017-10-21T09:38:08.277Z,70.5
2017-10-21T09:39:10.713Z,70.6
2017-10-21T09:40:13.142Z,70.7
2017-10-21T09:41:15.588Z,70.5
2017-10-21T09:42:18.021Z,70.5
2017-10-21T09:43:20.438Z,70.5
2017-10-21T09:44:22.834Z,70.7
2017-10-21T09:45:25.232Z,70.6
2017-10-21T09:46:27.630Z,70.5
2017-10-21T09:47:30.025Z,70.5
2017-10-21T09:48:32.420Z,70.5
2017-10-21T09:49:34.816Z,70.3
2017-10-21T09:50:37.241Z,70.3
2017-10-21T09:51:39.627Z,70.3
2017-10-21T09:52:42.026Z,70.2
2017-10-21T09:53:46.107Z,70.2
2017-10-21T09:54:53.389Z,70.2
2017-10-21T09:55:59.500Z,70.1
2017-10-21T09:57:08.476Z,70.1
2017-10-21T09:58:15.607Z,70.1
2017-10-21T09:59:20.217Z,70.2
2017-10-21T10:00:27.154Z,70.1
2017-10-21T10:01:35.459Z,70.1
2017-10-21T10:02:44.705Z,70
2017-10-21T10:03:51.825Z,69.9
2017-10-21T10:05:02.009Z,70
2017-10-21T10:06:10.274Z,70.1
2017-10-21T10:07:20.998Z,70.3
2017-10-21T10:08:31.061Z,70.4
2017-10-21T10:09:41.795Z,70.3
2017-10-21T10:10:49.406Z,70.3
2017-10-21T10:11:58.996Z,70.4
2017-10-21T10:13:08.975Z,70.4
2017-10-21T10:14:18.925Z,70.3
2017-10-21T10:15:25.568Z,70.3
2017-10-21T10:16:35.128Z,70.3
2017-10-21T10:17:43.371Z,70.2
2017-10-21T10:18:48.538Z,70.3
2017-10-21T10:19:59.309Z,70
2017-10-21T10:21:06.352Z,70.1
2017-10-21T10:22:12.870Z,70.3
2017-10-21T10:23:15.268Z,70.3
2017-10-21T10:24:17.674Z,70.1
2017-10-21T10:25:20.064Z,69.9
2017-10-21T10:26:22.464Z,69.9
2017-10-21T10:27:24.855Z,69.7
2017-10-21T10:28:27.252Z,69.7
2017-10-21T10:29:29.653Z,69.8
2017-10-21T10:30:32.049Z,69.7
2017-10-21T10:31:34.446Z,69.7
2017-10-21T10:32:36.844Z,69.7
2017-10-21T10:33:39.251Z,69.7
2017-10-21T10:34:41.646Z,69.6
2017-10-21T10:35:44.042Z,69.7
2017-10-21T10:36:46.439Z,69.7
2017-10-21T10:37:48.834Z,69.6
2017-10-21T10:38:51.235Z,69.6
2017-10-21T10:39:53.631Z,69.7
2017-10-21T10:40:56.030Z,69.7
2017-10-21T10:41:58.433Z,69.6
2017-10-21T10:43:00.833Z,69.6
2017-10-21T10:44:03.235Z,69.5
2017-10-21T10:45:05.640Z,69.6
2017-10-21T10:46:08.041Z,69.4
2017-10-21T10:47:10.442Z,69.5
2017-10-21T10:48:12.842Z,69.7
2017-10-21T10:49:15.236Z,69.4
2017-10-21T10:50:17.636Z,69.5
2017-10-21T10:51:20.039Z,69.4
2017-10-21T10:52:22.435Z,69.3
2017-10-21T10:53:24.838Z,69
2017-10-21T10:54:27.608Z,68.9
2017-10-21T10:55:30.007Z,68.9
2017-10-21T10:56:32.410Z,68.8
2017-10-21T10:57:34.803Z,68.9
2017-10-21T10:58:37.199Z,69
2017-10-21T10:59:39.597Z,69.1
2017-10-21T11:00:41.992Z,69.1
2017-10-21T11:01:44.394Z,69.2
2017-10-21T11:02:46.788Z,69.1
2017-10-21T11:03:49.907Z,69
2017-10-21T11:04:52.311Z,69
2017-10-21T11:05:54.708Z,69.1
2017-10-21T11:06:57.104Z,69.2
2017-10-21T11:07:59.505Z,68.8
2017-10-21T11:09:53.215Z,68.5
2017-10-21T11:10:55.572Z,68.5
2017-10-21T11:11:57.932Z,68.7
2017-10-21T11:13:00.286Z,68.6
2017-10-21T11:14:02.655Z,68.7
2017-10-21T11:15:05.017Z,68.9
2017-10-21T11:16:07.372Z,68.9
2017-10-21T11:17:09.727Z,68.8
2017-10-21T11:18:12.096Z,68.9
2017-10-21T11:19:14.448Z,69
2017-10-21T11:20:16.804Z,68.9
2017-10-21T11:21:19.506Z,68.8
2017-10-21T11:22:21.860Z,68.6
2017-10-21T11:23:24.218Z,68.4
2017-10-21T11:24:26.572Z,68.5
2017-10-21T11:25:29.628Z,68.3
2017-10-21T11:26:31.985Z,68.1
2017-10-21T11:27:34.340Z,67.9
2017-10-21T11:28:36.695Z,67.7
2017-10-21T11:29:39.054Z,67.6
2017-10-21T11:30:41.407Z,67.6
2017-10-21T11:31:43.763Z,67.5
2017-10-21T11:32:46.120Z,67.4
2017-10-21T11:33:48.478Z,67.5
2017-10-21T11:35:35.710Z,67.6
2017-10-21T11:36:38.111Z,67.7
2017-10-21T11:37:40.876Z,67.7
2017-10-21T11:38:43.280Z,67.8
2017-10-21T11:39:45.679Z,67.7
2017-10-21T11:40:48.081Z,67.7
2017-10-21T11:41:50.483Z,67.6
2017-10-21T11:42:52.886Z,67.6
2017-10-21T11:43:55.288Z,67.8
2017-10-21T11:44:57.687Z,67.6
2017-10-21T11:46:00.092Z,67.2
2017-10-21T11:47:02.493Z,66.9
2017-10-21T11:48:04.890Z,66.7
2017-10-21T11:49:07.287Z,66.7
2017-10-21T11:50:09.685Z,66.9
2017-10-21T11:51:12.088Z,66.6
2017-10-21T11:52:14.744Z,66.5
2017-10-21T11:53:17.738Z,66.7
2017-10-21T11:54:22.024Z,66.5
2017-10-21T11:55:27.103Z,66.5
2017-10-21T11:56:29.505Z,66.3
2017-10-21T11:57:31.946Z,66.3
2017-10-21T11:58:34.353Z,66
2017-10-21T11:59:36.849Z,65.8
2017-10-21T12:00:39.245Z,66
2017-10-21T12:01:41.682Z,66.1
2017-10-21T12:02:44.092Z,66.3
2017-10-21T12:03:46.494Z,66.3
2017-10-21T12:04:48.930Z,66.3
2017-10-21T12:05:51.332Z,66.3
2017-10-21T12:06:54.161Z,66.3
2017-10-21T12:07:56.627Z,66.4
2017-10-21T12:08:59.209Z,66.4
2017-10-21T12:10:01.614Z,66.5
2017-10-21T12:11:04.402Z,66.4
2017-10-21T12:12:06.808Z,66.3
2017-10-21T12:13:09.358Z,66.3
2017-10-21T12:14:11.760Z,66.3
2017-10-21T12:15:14.510Z,66.3
2017-10-21T12:16:16.908Z,65.9
2017-10-21T12:17:19.307Z,66
2017-10-21T12:18:21.706Z,65.9
2017-10-21T12:19:24.210Z,65.9
2017-10-21T12:20:26.610Z,65.8
2017-10-21T12:21:29.049Z,65.9
2017-10-21T12:22:31.457Z,66
2017-10-21T12:23:33.851Z,66.1
2017-10-21T12:24:36.634Z,66
2017-10-21T12:25:39.381Z,66.1
2017-10-21T12:26:41.794Z,66.1
2017-10-21T12:27:44.193Z,66.1
2017-10-21T12:28:46.596Z,66.1
2017-10-21T12:29:48.996Z,66
2017-10-21T12:30:51.404Z,66.1
2017-10-21T12:31:53.890Z,66
2017-10-21T12:32:56.287Z,66
2017-10-21T12:33:59.034Z,66
2017-10-21T12:35:01.433Z,65.9
2017-10-21T12:36:03.847Z,65.8
2017-10-21T12:37:06.244Z,65.7
2017-10-21T12:38:08.652Z,65.7
2017-10-21T12:39:11.048Z,65.6
2017-10-21T12:40:13.444Z,65.7
2017-10-21T12:41:15.842Z,65.8
2017-10-21T12:42:18.243Z,65.8
2017-10-21T12:43:20.642Z,65.8
2017-10-21T12:44:23.040Z,65.8
2017-10-21T12:45:25.440Z,65.8
2017-10-21T12:46:28.209Z,65.8
2017-10-21T12:47:30.610Z,65.7
2017-10-21T12:48:33.028Z,65.7
2017-10-21T12:49:35.430Z,65.9
2017-10-21T12:50:37.829Z,66
2017-10-21T12:51:40.232Z,66
2017-10-21T12:52:42.630Z,66
2017-10-21T12:53:45.381Z,65.9
2017-10-21T12:54:47.861Z,65.9
2017-10-21T12:55:50.283Z,65.9
2017-10-21T12:56:52.692Z,65.8
2017-10-21T12:57:55.093Z,65.7
2017-10-21T12:58:57.842Z,65.7
2017-10-21T13:00:00.242Z,65.8
2017-10-21T13:01:02.636Z,65.7
2017-10-21T13:02:05.038Z,65.7
2017-10-21T13:03:07.433Z,65.7
2017-10-21T13:04:09.830Z,65.7
2017-10-21T13:05:12.228Z,65.7
2017-10-21T13:06:14.626Z,65.7
2017-10-21T13:07:17.022Z,65.4
2017-10-21T13:08:19.430Z,65.4
2017-10-21T13:09:21.828Z,65.5
2017-10-21T13:10:24.583Z,65.6
2017-10-21T13:11:26.978Z,65.6
2017-10-21T13:12:29.385Z,65.7
2017-10-21T13:13:31.781Z,65.7
2017-10-21T13:14:34.182Z,65.6
2017-10-21T13:15:36.598Z,65.6
2017-10-21T13:16:39.020Z,65.6
2017-10-21T13:17:41.455Z,65.4
2017-10-21T13:18:43.842Z,65.4
2017-10-21T13:19:46.250Z,65.2
2017-10-21T13:20:48.661Z,65.2
2017-10-21T13:21:51.069Z,65.2
2017-10-21T13:22:53.473Z,65.4
2017-10-21T13:23:55.872Z,65.5
2017-10-21T13:24:58.647Z,65.5
2017-10-21T13:26:01.051Z,65.4
2017-10-21T13:27:03.452Z,65.4
2017-10-21T13:28:05.840Z,65.5
2017-10-21T13:29:08.245Z,65.6
2017-10-21T13:30:10.654Z,65.7
2017-10-21T13:31:13.050Z,65.7
2017-10-21T13:32:15.448Z,65.8
2017-10-21T13:33:17.853Z,65.7
2017-10-21T13:34:21.147Z,65.6
2017-10-21T13:35:24.000Z,65.3
2017-10-21T13:36:26.393Z,65.1
2017-10-21T13:37:28.793Z,65.1
2017-10-21T13:38:31.201Z,65.2
2017-10-21T13:39:33.607Z,65.2
2017-10-21T13:40:36.009Z,65.3
2017-10-21T13:41:38.407Z,65.2
2017-10-21T13:42:40.930Z,65.3
2017-10-21T13:43:43.318Z,65.2
2017-10-21T13:44:45.718Z,65.5
2017-10-21T13:45:48.505Z,65.5
2017-10-21T13:46:50.902Z,65.4
2017-10-21T13:47:53.343Z,65.3
2017-10-21T13:48:55.751Z,65.4
2017-10-21T13:49:58.193Z,65.3
2017-10-21T13:51:00.587Z,65.1
2017-10-21T13:52:02.996Z,65.2
2017-10-21T13:53:05.390Z,65.3
2017-10-21T13:54:07.903Z,65.3
2017-10-21T13:55:10.331Z,65.3
2017-10-21T13:56:12.730Z,65.3
2017-10-21T13:57:15.138Z,65.3
2017-10-21T13:58:17.531Z,65.3
2017-10-21T13:59:19.938Z,65.2
2017-10-21T14:00:22.334Z,65.2